createdAt,value
2019-05-07T00:02:02.759Z,98594.98
2019-05-07T00:04:29.159Z,98595.78
2019-05-07T00:06:55.154Z,98591.63
2019-05-07T00:09:23.329Z,98591.48
2019-05-07T00:11:49.456Z,98580.73
2019-05-07T00:14:15.620Z,98581.56
2019-05-07T00:16:43.165Z,98584.78
2019-05-07T00:19:09.386Z,98579.23
2019-05-07T00:21:36.536Z,98578.49
2019-05-07T00:24:02.974Z,98574.98
2019-05-07T00:26:29.299Z,98575.16
2019-05-07T00:28:55.473Z,98572.84
2019-05-07T00:31:23.261Z,98571.53
2019-05-07T00:33:49.504Z,98576.16
2019-05-07T00:36:15.619Z,98574.80
2019-05-07T00:38:42.742Z,98577.06
2019-05-07T00:41:09.101Z,98576.88
2019-05-07T00:43:35.673Z,98573.53
2019-05-07T00:46:02.872Z,98572.77
2019-05-07T00:48:28.960Z,98570.16
2019-05-07T00:50:55.236Z,98570.55
2019-05-07T00:53:23.496Z,98562.41
2019-05-07T00:55:49.279Z,98559.90
2019-05-07T00:58:15.471Z,98562.16
2019-05-07T01:00:42.663Z,98553.00
2019-05-07T01:03:09.108Z,98561.90
2019-05-07T01:05:35.079Z,98557.02
2019-05-07T01:08:02.574Z,98566.57
2019-05-07T01:10:30.068Z,98564.78
2019-05-07T01:12:59.057Z,98561.30
2019-05-07T01:15:30.742Z,98562.47
2019-05-07T01:17:52.290Z,98560.06
2019-05-07T01:20:18.553Z,98559.19
2019-05-07T01:22:44.475Z,98560.57
2019-05-07T01:25:12.695Z,98554.69
2019-05-07T01:27:39.896Z,98555.69
2019-05-07T01:30:06.356Z,98557.08
2019-05-07T01:32:32.979Z,98559.23
2019-05-07T01:34:59.323Z,98556.84
2019-05-07T01:37:25.498Z,98561.88
2019-05-07T01:39:52.935Z,98559.70
2019-05-07T01:42:22.151Z,98559.14
2019-05-07T01:44:48.302Z,98560.05
2019-05-07T01:47:14.237Z,98555.22
2019-05-07T01:49:42.188Z,98560.39
2019-05-07T01:52:08.525Z,98551.31
2019-05-07T01:54:34.465Z,98558.86
2019-05-07T01:57:02.735Z,98558.04
2019-05-07T01:59:28.558Z,98558.11
2019-05-07T02:01:54.803Z,98550.67
2019-05-07T02:04:22.391Z,98557.80
2019-05-07T02:06:48.802Z,98558.65
2019-05-07T02:09:14.839Z,98560.42
2019-05-07T02:11:42.259Z,98561.67
2019-05-07T02:14:08.552Z,98562.48
2019-05-07T02:16:34.708Z,98561.08
2019-05-07T02:19:02.186Z,98563.63
2019-05-07T02:21:29.364Z,98566.41
2019-05-07T02:23:55.559Z,98562.87
2019-05-07T02:26:22.587Z,98559.70
2019-05-07T02:28:48.789Z,98558.81
2019-05-07T02:31:15.326Z,98558.17
2019-05-07T02:33:43.362Z,98562.55
2019-05-07T02:36:09.672Z,98565.06
2019-05-07T02:38:35.749Z,98564.58
2019-05-07T02:41:02.936Z,98563.56
2019-05-07T02:43:29.099Z,98559.72
2019-05-07T02:45:55.125Z,98562.87
2019-05-07T02:48:23.746Z,98557.22
2019-05-07T02:50:49.454Z,98558.09
2019-05-07T02:53:18.010Z,98554.20
2019-05-07T02:55:43.784Z,98565.41
2019-05-07T02:58:09.833Z,98560.18
2019-05-07T03:00:36.098Z,98559.70
2019-05-07T03:03:04.072Z,98553.95
2019-05-07T03:05:31.030Z,98556.72
2019-05-07T03:07:57.191Z,98560.84
2019-05-07T03:10:23.952Z,98556.61
2019-05-07T03:12:53.362Z,98553.66
2019-05-07T03:15:18.288Z,98552.45
2019-05-07T03:17:44.467Z,98552.11
2019-05-07T03:20:13.849Z,98547.66
2019-05-07T03:22:39.187Z,98558.95
2019-05-07T03:25:05.330Z,98564.81
2019-05-07T03:27:34.195Z,98561.97
2019-05-07T03:30:03.887Z,98559.30
2019-05-07T03:32:28.644Z,98558.95
2019-05-07T03:34:57.691Z,98555.97
2019-05-07T03:37:23.601Z,98553.30
2019-05-07T03:39:49.974Z,98554.41
2019-05-07T03:42:16.156Z,98557.57
2019-05-07T03:44:44.472Z,98561.01
2019-05-07T03:47:10.067Z,98564.10
2019-05-07T03:49:36.123Z,98558.04
2019-05-07T03:52:04.255Z,98559.42
2019-05-07T03:54:30.017Z,98566.30
2019-05-07T03:56:56.080Z,98566.71
2019-05-07T03:59:23.080Z,98566.61
2019-05-07T04:01:49.472Z,98564.47
2019-05-07T04:04:15.440Z,98569.86
2019-05-07T04:06:43.405Z,98566.17
2019-05-07T04:09:09.313Z,98568.63
2019-05-07T04:11:35.398Z,98572.70
2019-05-07T04:14:02.725Z,98558.99
2019-05-07T04:16:33.016Z,98573.86
2019-05-07T04:18:57.931Z,98570.87
2019-05-07T04:21:24.016Z,98575.03
2019-05-07T04:23:49.965Z,98575.70
2019-05-07T04:26:16.080Z,98582.29
2019-05-07T04:28:43.564Z,98580.50
2019-05-07T04:31:09.944Z,98580.50
2019-05-07T04:33:36.209Z,98581.63
2019-05-07T04:36:02.988Z,98579.33
2019-05-07T04:38:29.609Z,98585.02
2019-05-07T04:40:55.703Z,98586.10
2019-05-07T04:43:23.278Z,98583.55
2019-05-07T04:45:49.801Z,98589.36
2019-05-07T04:48:15.881Z,98588.18
2019-05-07T04:50:44.317Z,98592.40
2019-05-07T04:53:09.958Z,98590.42
2019-05-07T04:55:36.014Z,98415.66
2019-05-07T04:58:08.286Z,98595.66
2019-05-07T05:00:33.604Z,98600.59
2019-05-07T05:02:59.222Z,98602.30
2019-05-07T05:05:26.350Z,98601.66
2019-05-07T05:07:53.405Z,98601.06
2019-05-07T05:10:19.577Z,98603.06
2019-05-07T05:12:45.630Z,98607.95
2019-05-07T05:15:12.756Z,98609.44
2019-05-07T05:17:48.043Z,98604.50
2019-05-07T05:20:07.041Z,98607.59
2019-05-07T05:22:33.049Z,98608.53
2019-05-07T05:24:58.990Z,98613.36
2019-05-07T05:27:24.987Z,98614.78
2019-05-07T05:29:52.056Z,98616.81
2019-05-07T05:32:18.194Z,98623.41
2019-05-07T05:34:44.318Z,98624.70
2019-05-07T05:37:11.952Z,98625.95
2019-05-07T05:39:38.145Z,98621.37
2019-05-07T05:42:04.172Z,98629.16
2019-05-07T05:44:32.009Z,98624.82
2019-05-07T05:46:58.382Z,98625.95
2019-05-07T05:49:24.324Z,98629.52
2019-05-07T05:51:52.395Z,98632.30
2019-05-07T05:54:18.610Z,98635.63
2019-05-07T05:56:44.751Z,98628.66
2019-05-07T05:59:24.176Z,98632.84
2019-05-07T06:01:44.150Z,98626.25
2019-05-07T06:04:12.336Z,98632.14
2019-05-07T06:06:38.549Z,98628.39
2019-05-07T06:09:06.625Z,98623.28
2019-05-07T06:11:32.850Z,98625.58
2019-05-07T06:13:59.178Z,98624.75
2019-05-07T06:16:25.303Z,98629.09
2019-05-07T06:18:52.546Z,98633.68
2019-05-07T06:21:18.788Z,98635.48
2019-05-07T06:23:45.114Z,98630.64
2019-05-07T06:26:12.698Z,98631.06
2019-05-07T06:28:38.992Z,98635.99
2019-05-07T06:31:05.193Z,98640.66
2019-05-07T06:33:32.450Z,98631.54
2019-05-07T06:35:58.781Z,98630.92
2019-05-07T06:38:24.790Z,98634.57
2019-05-07T06:40:51.967Z,98637.36
2019-05-07T06:43:18.039Z,98630.67
2019-05-07T06:45:44.003Z,98634.77
2019-05-07T06:48:12.479Z,98631.08
2019-05-07T06:50:38.229Z,98634.72
2019-05-07T06:53:04.188Z,98631.59
2019-05-07T06:55:32.362Z,98636.05
2019-05-07T06:57:58.829Z,98632.60
2019-05-07T07:00:25.546Z,98635.38
2019-05-07T07:02:52.522Z,98633.08
2019-05-07T07:05:23.437Z,98630.78
2019-05-07T07:07:47.687Z,98640.80
2019-05-07T07:10:14.050Z,98637.19
2019-05-07T07:12:41.889Z,98639.34
2019-05-07T07:15:09.107Z,98640.64
2019-05-07T07:17:35.257Z,98637.52
2019-05-07T07:20:02.397Z,98633.71
2019-05-07T07:22:28.534Z,98630.89
2019-05-07T07:24:54.603Z,98626.88
2019-05-07T07:27:22.698Z,98629.65
2019-05-07T07:29:48.681Z,98630.94
2019-05-07T07:32:14.685Z,98629.42
2019-05-07T07:34:42.651Z,98633.91
2019-05-07T07:37:12.838Z,98625.58
2019-05-07T07:39:36.789Z,98620.36
2019-05-07T07:42:03.104Z,98624.16
2019-05-07T07:44:29.089Z,98628.66
2019-05-07T07:46:55.085Z,98623.67
2019-05-07T07:49:22.207Z,98626.73
2019-05-07T07:51:48.521Z,98634.97
2019-05-07T07:54:14.442Z,98640.08
2019-05-07T07:56:50.018Z,98634.73
2019-05-07T07:59:08.435Z,98637.20
2019-05-07T08:01:34.684Z,98628.39
2019-05-07T08:04:02.815Z,98631.02
2019-05-07T08:06:28.804Z,98627.76
2019-05-07T08:08:55.322Z,98626.64
2019-05-07T08:11:22.037Z,98631.05
2019-05-07T08:13:48.227Z,98634.27
2019-05-07T08:16:14.374Z,98626.84
2019-05-07T08:18:40.509Z,98626.01
2019-05-07T08:21:08.052Z,98624.48
2019-05-07T08:23:34.297Z,98616.16
2019-05-07T08:26:02.415Z,98613.75
2019-05-07T08:28:28.485Z,98622.98
2019-05-07T08:30:54.462Z,98619.55
2019-05-07T08:33:22.392Z,98610.17
2019-05-07T08:35:48.593Z,98610.83
2019-05-07T08:38:14.582Z,98608.86
2019-05-07T08:40:41.854Z,98605.45
2019-05-07T08:43:08.064Z,98609.22
2019-05-07T08:45:34.426Z,98612.18
2019-05-07T08:48:02.052Z,98616.77
2019-05-07T08:50:28.214Z,98610.30
2019-05-07T08:52:54.163Z,98617.17
2019-05-07T08:55:21.792Z,98607.36
2019-05-07T08:57:48.051Z,98611.54
2019-05-07T09:00:15.238Z,98609.00
2019-05-07T09:02:42.091Z,98609.98
2019-05-07T09:05:09.307Z,98608.36
2019-05-07T09:07:35.537Z,98601.80
2019-05-07T09:10:02.805Z,98599.31
2019-05-07T09:12:29.068Z,98596.22
2019-05-07T09:14:55.064Z,98595.59
2019-05-07T09:17:23.012Z,98590.97
2019-05-07T09:19:52.237Z,98584.70
2019-05-07T09:22:17.074Z,98586.48
2019-05-07T09:24:44.990Z,98577.70
2019-05-07T09:27:12.167Z,98575.02
2019-05-07T09:29:38.556Z,98572.71
2019-05-07T09:32:04.751Z,98572.71
2019-05-07T09:34:32.714Z,98571.24
2019-05-07T09:36:58.850Z,98566.77
2019-05-07T09:39:26.134Z,98565.52
2019-05-07T09:41:52.646Z,98565.52
2019-05-07T09:44:18.850Z,98561.47
2019-05-07T09:46:46.727Z,98563.41
2019-05-07T09:49:13.107Z,98559.14
2019-05-07T09:51:39.273Z,98559.37
2019-05-07T09:54:05.390Z,98558.95
2019-05-07T09:56:31.977Z,98556.00
2019-05-07T09:58:58.481Z,98559.44
2019-05-07T10:01:24.921Z,98556.58
2019-05-07T10:03:51.833Z,98547.81
2019-05-07T10:06:18.223Z,98550.30
2019-05-07T10:08:44.411Z,98549.84
2019-05-07T10:11:12.097Z,98556.64
2019-05-07T10:13:39.626Z,98550.67
2019-05-07T10:16:07.713Z,98549.77
2019-05-07T10:18:34.225Z,98550.13
2019-05-07T10:21:02.375Z,98553.43
2019-05-07T10:23:28.610Z,98548.75
2019-05-07T10:25:55.036Z,98548.04
2019-05-07T10:28:22.735Z,98550.09
2019-05-07T10:30:49.251Z,98552.39
2019-05-07T10:33:15.525Z,98555.02
2019-05-07T10:35:43.477Z,98543.75
2019-05-07T10:38:09.830Z,98545.06
2019-05-07T10:40:36.011Z,98546.23
2019-05-07T10:43:02.477Z,98541.89
2019-05-07T10:45:28.915Z,98534.02
2019-05-07T10:47:55.205Z,98537.13
2019-05-07T10:50:33.072Z,98536.25
2019-05-07T10:52:49.469Z,98540.13
2019-05-07T10:55:15.851Z,98539.09
2019-05-07T10:57:42.342Z,98540.09
2019-05-07T11:00:09.701Z,98541.89
2019-05-07T11:02:39.333Z,98534.94
2019-05-07T11:05:06.852Z,98533.98
2019-05-07T11:07:32.922Z,98537.08
2019-05-07T11:09:58.978Z,98527.55
2019-05-07T11:12:25.116Z,98533.38
2019-05-07T11:14:51.679Z,98534.97
2019-05-07T11:17:17.749Z,98534.72
2019-05-07T11:19:43.897Z,98520.70
2019-05-07T11:22:11.636Z,98520.70
2019-05-07T11:24:38.092Z,98517.53
2019-05-07T11:27:04.239Z,98515.09
2019-05-07T11:29:33.062Z,98512.35
2019-05-07T11:31:59.255Z,98515.34
2019-05-07T11:34:25.340Z,98515.34
2019-05-07T11:36:52.593Z,98504.03
2019-05-07T11:39:18.827Z,98502.88
2019-05-07T11:41:44.882Z,98493.55
2019-05-07T11:44:12.432Z,98499.59
2019-05-07T11:46:38.569Z,98499.05
2019-05-07T11:49:04.721Z,98493.41
2019-05-07T11:51:32.901Z,98497.20
2019-05-07T11:53:58.845Z,98497.20
2019-05-07T11:56:24.877Z,98495.85
2019-05-07T11:58:54.710Z,98497.20
2019-05-07T12:01:22.372Z,98495.59
2019-05-07T12:03:47.906Z,98489.77
2019-05-07T12:06:15.253Z,98485.88
2019-05-07T12:08:49.719Z,98485.80
2019-05-07T12:11:09.320Z,98482.64
2019-05-07T12:13:35.357Z,98480.62
2019-05-07T12:16:03.019Z,98476.99
2019-05-07T12:18:29.330Z,98472.83
2019-05-07T12:20:55.350Z,98478.11
2019-05-07T12:23:22.630Z,98471.72
2019-05-07T12:25:49.231Z,98470.11
2019-05-07T12:28:15.173Z,98470.70
2019-05-07T12:30:42.839Z,98464.16
2019-05-07T12:33:09.087Z,98466.92
2019-05-07T12:35:36.185Z,98463.72
2019-05-07T12:38:02.551Z,98462.28
2019-05-07T12:40:28.739Z,98458.81
2019-05-07T12:42:54.847Z,98456.56
2019-05-07T12:45:22.827Z,98451.28
2019-05-07T12:47:48.963Z,98452.27
2019-05-07T12:50:15.090Z,98450.78
2019-05-07T12:52:42.450Z,98456.56
2019-05-07T12:55:09.399Z,98456.56
2019-05-07T12:57:35.709Z,98453.80
2019-05-07T13:00:04.842Z,98453.28
2019-05-07T13:02:38.003Z,98447.21
2019-05-07T13:04:59.254Z,98447.21
2019-05-07T13:07:28.437Z,98447.11
2019-05-07T13:09:54.536Z,98448.81
2019-05-07T13:12:21.752Z,98451.38
2019-05-07T13:14:47.910Z,98445.97
2019-05-07T13:17:13.975Z,98439.39
2019-05-07T13:19:41.883Z,98443.40
2019-05-07T13:22:08.374Z,98445.17
2019-05-07T13:24:34.457Z,98442.28
2019-05-07T13:27:00.510Z,98442.98
2019-05-07T13:29:26.628Z,98436.92
2019-05-07T13:31:54.245Z,98441.26
2019-05-07T13:34:22.780Z,98435.53
2019-05-07T13:36:51.656Z,98442.65
2019-05-07T13:39:18.765Z,98431.45
2019-05-07T13:41:44.837Z,98432.27
2019-05-07T13:44:12.339Z,98433.88
2019-05-07T13:46:39.249Z,98426.06
2019-05-07T13:49:05.636Z,98418.25
2019-05-07T13:51:33.780Z,98420.08
2019-05-07T13:54:02.103Z,98413.53
2019-05-07T13:56:28.506Z,98410.56
2019-05-07T13:58:56.127Z,98403.78
2019-05-07T14:01:22.970Z,98403.05
2019-05-07T14:03:50.209Z,98403.05
2019-05-07T14:06:16.689Z,98399.63
2019-05-07T14:08:43.124Z,98399.63
2019-05-07T14:11:09.499Z,98396.80
2019-05-07T14:13:35.967Z,98393.34
2019-05-07T14:16:02.646Z,98390.02
2019-05-07T14:18:29.920Z,98390.27
2019-05-07T14:20:57.037Z,98385.13
2019-05-07T14:23:23.043Z,98385.87
2019-05-07T14:25:49.109Z,98385.95
2019-05-07T14:28:15.154Z,98387.98
2019-05-07T14:30:42.087Z,98383.34
2019-05-07T14:33:08.254Z,98378.02
2019-05-07T14:35:34.613Z,98378.02
2019-05-07T14:38:00.882Z,98381.33
2019-05-07T14:40:27.067Z,98377.41
2019-05-07T14:42:54.187Z,98379.02
2019-05-07T14:45:23.983Z,98378.05
2019-05-07T14:47:52.248Z,98369.69
2019-05-07T14:50:19.922Z,98356.86
2019-05-07T14:52:46.280Z,98356.86
2019-05-07T14:55:13.036Z,98360.40
2019-05-07T14:57:39.513Z,98367.33
2019-05-07T15:00:06.444Z,98363.41
2019-05-07T15:02:33.962Z,98365.58
2019-05-07T15:05:02.656Z,98358.47
2019-05-07T15:07:28.362Z,98364.94
2019-05-07T15:09:55.350Z,98362.52
2019-05-07T15:12:23.338Z,98359.45
2019-05-07T15:14:49.573Z,98357.38
2019-05-07T15:17:15.612Z,98355.98
2019-05-07T15:19:42.761Z,98358.33
2019-05-07T15:22:09.002Z,98353.64
2019-05-07T15:24:35.169Z,98349.20
2019-05-07T15:27:02.179Z,98354.72
2019-05-07T15:29:28.546Z,98353.33
2019-05-07T15:31:54.605Z,98350.08
2019-05-07T15:34:22.146Z,98355.08
2019-05-07T15:36:48.542Z,98353.19
2019-05-07T15:39:14.683Z,98350.06
2019-05-07T15:41:42.704Z,98351.41
2019-05-07T15:44:08.813Z,98348.84
2019-05-07T15:46:34.845Z,98351.44
2019-05-07T15:49:01.846Z,98342.41
2019-05-07T15:51:28.139Z,98342.66
2019-05-07T15:53:54.206Z,98345.94
2019-05-07T15:56:21.920Z,98341.44
2019-05-07T15:58:48.188Z,98339.91
2019-05-07T16:01:14.181Z,98335.30
2019-05-07T16:03:40.236Z,98336.88
2019-05-07T16:06:07.127Z,98330.23
2019-05-07T16:08:33.417Z,98328.59
2019-05-07T16:11:01.552Z,98325.04
2019-05-07T16:13:27.458Z,98326.91
2019-05-07T16:15:53.438Z,98328.62
2019-05-07T16:18:23.662Z,98321.98
2019-05-07T16:20:48.399Z,98321.98
2019-05-07T16:23:18.021Z,98323.52
2019-05-07T16:25:42.489Z,98315.87
2019-05-07T16:28:08.452Z,98319.33
2019-05-07T16:30:34.449Z,98319.61
2019-05-07T16:33:02.121Z,98326.98
2019-05-07T16:35:29.144Z,98317.68
2019-05-07T16:37:55.618Z,98313.05
2019-05-07T16:40:22.994Z,98305.80
2019-05-07T16:42:49.393Z,98307.63
2019-05-07T16:45:16.729Z,98308.16
2019-05-07T16:47:43.104Z,98302.93
2019-05-07T16:50:12.942Z,98299.67
2019-05-07T16:52:39.220Z,98302.08
2019-05-07T16:55:06.615Z,98310.91
2019-05-07T16:57:33.710Z,98302.32
2019-05-07T16:59:59.818Z,98302.32
2019-05-07T17:02:25.920Z,98299.30
2019-05-07T17:04:52.053Z,98301.50
2019-05-07T17:07:18.228Z,98293.58
2019-05-07T17:09:44.318Z,98301.28
2019-05-07T17:12:10.513Z,98297.36
2019-05-07T17:14:36.599Z,98291.80
2019-05-07T17:17:02.870Z,98291.23
2019-05-07T17:19:31.957Z,98293.13
2019-05-07T17:21:58.147Z,98295.94
2019-05-07T17:24:24.488Z,98290.54
2019-05-07T17:26:51.757Z,98292.03
2019-05-07T17:29:18.004Z,98294.86
2019-05-07T17:31:44.094Z,98297.17
2019-05-07T17:34:11.783Z,98291.83
2019-05-07T17:36:38.290Z,98294.18
2019-05-07T17:39:05.667Z,98290.19
2019-05-07T17:41:33.508Z,98292.86
2019-05-07T17:43:59.700Z,98297.70
2019-05-07T17:46:25.982Z,98292.64
2019-05-07T17:48:52.567Z,98294.35
2019-05-07T17:51:21.584Z,98297.64
2019-05-07T17:53:57.655Z,98297.61
2019-05-07T17:56:15.681Z,98290.41
2019-05-07T17:58:42.667Z,98296.39
2019-05-07T18:01:09.997Z,98297.47
2019-05-07T18:03:36.226Z,98298.81
2019-05-07T18:06:03.055Z,98294.10
2019-05-07T18:08:29.332Z,98292.32
2019-05-07T18:10:56.419Z,98298.30
2019-05-07T18:13:22.480Z,98297.70
2019-05-07T18:15:48.705Z,98298.78
2019-05-07T18:18:14.810Z,98298.47
2019-05-07T18:20:42.261Z,98301.64
2019-05-07T18:23:13.331Z,98335.02
2019-05-07T18:25:37.682Z,98301.70
2019-05-07T18:28:03.979Z,98298.31
2019-05-07T18:30:30.109Z,98295.03
2019-05-07T18:32:56.157Z,98301.67
2019-05-07T18:35:23.100Z,98293.81
2019-05-07T18:37:52.273Z,98289.13
2019-05-07T18:40:20.516Z,98288.67
2019-05-07T18:42:46.602Z,98291.52
2019-05-07T18:45:12.942Z,98290.05
2019-05-07T18:47:39.077Z,98294.19
2019-05-07T18:50:05.196Z,98294.88
2019-05-07T18:52:31.985Z,98290.30
2019-05-07T18:54:58.154Z,98176.17
2019-05-07T18:57:24.114Z,98291.50
2019-05-07T18:59:50.081Z,98294.45
2019-05-07T19:02:16.164Z,98301.00
2019-05-07T19:04:42.337Z,98286.75
2019-05-07T19:07:08.423Z,98292.33
2019-05-07T19:09:34.599Z,98295.42
2019-05-07T19:12:00.757Z,98294.45
2019-05-07T19:14:26.816Z,98303.09
2019-05-07T19:16:52.955Z,98298.83
2019-05-07T19:19:22.173Z,98297.34
2019-05-07T19:21:48.093Z,98300.11
2019-05-07T19:24:14.263Z,98303.36
2019-05-07T19:26:42.102Z,98299.93
2019-05-07T19:29:08.191Z,98301.36
2019-05-07T19:31:35.414Z,98303.02
2019-05-07T19:34:04.745Z,98303.66
2019-05-07T19:36:32.181Z,98299.23
2019-05-07T19:38:58.218Z,98305.27
2019-05-07T19:41:25.574Z,98298.55
2019-05-07T19:43:52.768Z,98295.61
2019-05-07T19:46:18.923Z,98296.92
2019-05-07T19:48:46.533Z,98293.89
2019-05-07T19:51:12.551Z,98295.18
2019-05-07T19:53:38.752Z,98284.55
2019-05-07T19:56:04.959Z,98288.13
2019-05-07T19:58:32.701Z,98281.19
2019-05-07T20:00:59.197Z,98286.05
2019-05-07T20:03:25.267Z,98286.13
2019-05-07T20:05:52.505Z,98281.80
2019-05-07T20:08:21.033Z,98275.05
2019-05-07T20:10:47.153Z,98273.69
2019-05-07T20:13:13.525Z,98273.75
2019-05-07T20:15:39.583Z,98272.71
2019-05-07T20:18:05.579Z,98272.50
2019-05-07T20:20:33.160Z,98274.08
2019-05-07T20:23:02.431Z,98272.52
2019-05-07T20:25:28.527Z,98286.40
2019-05-07T20:27:54.652Z,98271.30
2019-05-07T20:30:22.742Z,98263.29
2019-05-07T20:32:48.524Z,98255.31
2019-05-07T20:35:14.721Z,98260.07
2019-05-07T20:37:41.966Z,98256.16
2019-05-07T20:40:08.610Z,98258.72
2019-05-07T20:42:34.792Z,98258.28
2019-05-07T20:45:02.989Z,98263.47
2019-05-07T20:47:28.966Z,98256.14
2019-05-07T20:49:56.080Z,98261.84
2019-05-07T20:52:23.169Z,98259.02
2019-05-07T20:54:49.186Z,98259.97
2019-05-07T20:57:15.179Z,98247.36
2019-05-07T20:59:43.186Z,98251.48
2019-05-07T21:02:09.197Z,98251.44
2019-05-07T21:04:35.722Z,98249.95
2019-05-07T21:07:02.181Z,98249.83
2019-05-07T21:09:32.613Z,98254.88
2019-05-07T21:11:58.285Z,98249.57
2019-05-07T21:14:25.966Z,98250.27
2019-05-07T21:16:52.006Z,98253.23
2019-05-07T21:19:18.022Z,98247.00
2019-05-07T21:21:44.044Z,98242.00
2019-05-07T21:24:13.019Z,98248.66
2019-05-07T21:26:39.446Z,98242.13
2019-05-07T21:29:05.592Z,98241.57
2019-05-07T21:31:33.446Z,98248.14
2019-05-07T21:33:59.681Z,98240.91
2019-05-07T21:36:25.665Z,98237.95
2019-05-07T21:38:52.006Z,98237.25
2019-05-07T21:41:19.241Z,98235.98
2019-05-07T21:43:46.208Z,98234.16
2019-05-07T21:46:12.969Z,98231.84
2019-05-07T21:48:39.190Z,98236.05
2019-05-07T21:51:06.309Z,98229.14
2019-05-07T21:53:32.529Z,98220.00
2019-05-07T21:56:01.788Z,98211.86
2019-05-07T21:58:26.642Z,98215.53
2019-05-07T22:00:54.447Z,98205.74
2019-05-07T22:03:20.538Z,98207.34
2019-05-07T22:05:46.747Z,98198.57
2019-05-07T22:08:12.826Z,98203.17
2019-05-07T22:10:38.891Z,98193.88
2019-05-07T22:13:04.922Z,98185.20
2019-05-07T22:15:31.907Z,98182.38
2019-05-07T22:17:58.028Z,98178.55
2019-05-07T22:20:24.110Z,98176.42
2019-05-07T22:22:52.081Z,98172.98
2019-05-07T22:25:19.079Z,98175.94
2019-05-07T22:27:47.105Z,98174.94
2019-05-07T22:30:13.249Z,98169.36
2019-05-07T22:32:39.319Z,98167.25
2019-05-07T22:35:05.775Z,98175.28
2019-05-07T22:37:33.737Z,98161.17
2019-05-07T22:40:18.027Z,98163.34
2019-05-07T22:42:51.691Z,98164.16
2019-05-07T22:45:18.774Z,98162.14
2019-05-07T22:47:45.055Z,98160.69
2019-05-07T22:50:11.978Z,98162.41
2019-05-07T22:52:39.267Z,98161.59
2019-05-07T22:55:08.525Z,98157.25
2019-05-07T22:57:34.622Z,98152.52
2019-05-07T23:00:06.334Z,98149.73
2019-05-07T23:02:35.471Z,98142.97
2019-05-07T23:05:04.694Z,98143.50
2019-05-07T23:07:34.822Z,98137.59
2019-05-07T23:10:03.030Z,98125.05
2019-05-07T23:12:29.112Z,98132.14
2019-05-07T23:14:57.123Z,98130.05
2019-05-07T23:17:28.197Z,98117.22
2019-05-07T23:20:04.926Z,98118.50
2019-05-07T23:22:39.013Z,98111.87
2019-05-07T23:25:12.458Z,98112.53
2019-05-07T23:27:43.448Z,98113.83
2019-05-07T23:30:12.480Z,98101.03
2019-05-07T23:32:38.777Z,98106.56
2019-05-07T23:35:12.938Z,98096.20
2019-05-07T23:37:39.013Z,98092.62
2019-05-07T23:40:05.668Z,98101.32
2019-05-07T23:42:31.733Z,98089.55
2019-05-07T23:44:57.824Z,98084.19
2019-05-07T23:47:23.820Z,98081.50
2019-05-07T23:49:52.235Z,98079.37
2019-05-07T23:52:17.879Z,98083.09
2019-05-07T23:54:43.843Z,98074.40
2019-05-07T23:57:14.910Z,98069.27
2019-05-07T23:59:38.057Z,98072.94
